Time;durP1;ratioP1;P1;durP2;ratioP2;P2;SDS_P1;SDS_P2;PMS_P1;PMS_P2;Temp;Humidity;BMP_temperature;BMP_pressure;BME280_temperature;BME280_humidity;BME280_pressure;Samples;Min_cycle;Max_cycle;Signal;HPM_P1;HPM_P2
2022/08/31 00:04:44;;;;;;;;;;;20.60;56.40;;;;;;5141894;27;19930;-46
2022/08/31 00:07:11;;;;;;;;;;;21.60;55.00;;;;;;5144463;27;19927;-56
2022/08/31 00:09:36;;;;;;;;;;;21.30;53.50;;;;;;5149327;27;19927;-50
2022/08/31 00:12:02;;;;;;;;;;;20.70;53.20;;;;;;5144029;27;19930;-45
2022/08/31 00:14:28;;;;;;;;;;;20.30;52.50;;;;;;5149614;27;20008;-48
2022/08/31 00:16:54;;;;;;;;;;;20.20;51.90;;;;;;5144013;27;20305;-47
2022/08/31 00:19:20;;;;;;;;;;;20.10;51.60;;;;;;5143804;27;20445;-46
2022/08/31 00:21:46;;;;;;;;;;;19.80;51.50;;;;;;5126376;27;20366;-46
2022/08/31 00:24:13;;;;;;;;;;;20.00;54.60;;;;;;5142807;27;20289;-48
2022/08/31 00:26:39;;;;;;;;;;;20.80;56.60;;;;;;5125050;27;20349;-48
2022/08/31 00:29:05;;;;;;;;;;;21.60;55.30;;;;;;5149161;27;19929;-46
2022/08/31 00:31:30;;;;;;;;;;;21.20;54.00;;;;;;5143648;27;19923;-48
2022/08/31 00:33:56;;;;;;;;;;;20.70;53.20;;;;;;5128655;27;19931;-50
2022/08/31 00:36:22;;;;;;;;;;;20.30;52.60;;;;;;5143562;27;20302;-45
2022/08/31 00:38:48;;;;;;;;;;;20.00;52.20;;;;;;5141640;27;19938;-50
2022/08/31 00:41:14;;;;;;;;;;;20.00;51.60;;;;;;5145541;27;19923;-47
2022/08/31 00:43:42;;;;;;;;;;;19.90;51.60;;;;;;5143035;27;20026;-46
2022/08/31 00:46:08;;;;;;;;;;;20.30;55.50;;;;;;5142594;27;20026;-46
2022/08/31 00:48:35;;;;;;;;;;;21.20;56.10;;;;;;5148472;27;19924;-46
2022/08/31 00:51:01;;;;;;;;;;;21.80;54.50;;;;;;5123153;27;20401;-46
2022/08/31 00:53:26;;;;;;;;;;;20.80;54.30;;;;;;5148072;27;19923;-53
2022/08/31 00:55:52;;;;;;;;;;;20.30;53.60;;;;;;5144439;27;20533;-46
2022/08/31 00:58:18;;;;;;;;;;;20.00;53.20;;;;;;5120655;27;19927;-49
2022/08/31 01:00:44;;;;;;;;;;;20.10;52.40;;;;;;5126972;27;19928;-48
2022/08/31 01:03:10;;;;;;;;;;;20.00;52.10;;;;;;5124566;27;20442;-45
2022/08/31 01:05:36;;;;;;;;;;;19.80;52.00;;;;;;5124507;27;19927;-48
2022/08/31 01:08:02;;;;;;;;;;;20.00;54.90;;;;;;5148370;27;19970;-47
2022/08/31 01:10:29;;;;;;;;;;;20.80;58.10;;;;;;5142954;27;19927;-46
2022/08/31 01:12:55;;;;;;;;;;;21.60;57.80;;;;;;5144496;27;19931;-53
2022/08/31 01:15:21;;;;;;;;;;;21.20;56.10;;;;;;5127385;27;19981;-49
2022/08/31 01:17:47;;;;;;;;;;;20.60;55.30;;;;;;5138941;27;19934;-46
2022/08/31 01:20:17;;;;;;;;;;;20.30;54.10;;;;;;5147765;27;20439;-46
2022/08/31 01:22:58;;;;;;;;;;;20.00;53.40;;;;;;5123850;27;20404;-45
2022/08/31 01:25:24;;;;;;;;;;;19.90;52.60;;;;;;5142601;27;19923;-47
2022/08/31 01:27:50;;;;;;;;;;;20.10;57.70;;;;;;5148010;27;20363;-49
2022/08/31 01:30:20;;;;;;;;;;;20.80;60.50;;;;;;5142652;27;20279;-47
2022/08/31 01:32:45;;;;;;;;;;;21.50;60.20;;;;;;5142340;27;20309;-47
2022/08/31 01:35:11;;;;;;;;;;;21.30;57.80;;;;;;5143632;27;19934;-48
2022/08/31 01:37:37;;;;;;;;;;;20.50;56.20;;;;;;5141362;27;19923;-45
2022/08/31 01:40:03;;;;;;;;;;;20.30;54.50;;;;;;5143243;27;20443;-52
2022/08/31 01:42:29;;;;;;;;;;;20.00;53.90;;;;;;5147546;27;19983;-46
2022/08/31 01:44:55;;;;;;;;;;;19.80;53.40;;;;;;5142376;27;19924;-48
2022/08/31 01:47:20;;;;;;;;;;;19.90;54.00;;;;;;5147861;27;19934;-45
2022/08/31 01:49:46;;;;;;;;;;;20.50;60.30;;;;;;5142229;27;19923;-46
2022/08/31 01:52:12;;;;;;;;;;;21.10;62.00;;;;;;5140366;27;19923;-47
2022/08/31 01:54:37;;;;;;;;;;;21.70;60.10;;;;;;5144057;27;19923;-47
2022/08/31 01:57:03;;;;;;;;;;;20.80;57.80;;;;;;5141302;27;20482;-46
2022/08/31 01:59:29;;;;;;;;;;;20.30;55.90;;;;;;5122755;27;19953;-49
2022/08/31 02:01:55;;;;;;;;;;;19.90;55.20;;;;;;5147576;27;19923;-45
2022/08/31 02:04:22;;;;;;;;;;;19.90;53.90;;;;;;5142299;27;19931;-47
2022/08/31 02:06:49;;;;;;;;;;;20.00;58.30;;;;;;5147421;27;19923;-48
2022/08/31 02:09:15;;;;;;;;;;;20.70;62.50;;;;;;5141853;27;19930;-47
2022/08/31 02:11:40;;;;;;;;;;;21.40;62.60;;;;;;5138386;27;20022;-47
2022/08/31 02:14:06;;;;;;;;;;;21.10;59.40;;;;;;5145515;27;19926;-47
2022/08/31 02:16:32;;;;;;;;;;;20.60;57.10;;;;;;5141846;27;20367;-47
2022/08/31 02:18:58;;;;;;;;;;;20.30;55.10;;;;;;5141695;27;20250;-47
2022/08/31 02:21:24;;;;;;;;;;;20.20;54.20;;;;;;5147271;27;19930;-44
2022/08/31 02:23:49;;;;;;;;;;;19.80;53.50;;;;;;5141699;27;19946;-46
2022/08/31 02:26:15;;;;;;;;;;;19.70;53.20;;;;;;5147356;27;19922;-46
2022/08/31 02:28:41;;;;;;;;;;;20.20;58.60;;;;;;5141294;27;20538;-49
2022/08/31 02:31:07;;;;;;;;;;;20.70;63.30;;;;;;5137421;27;19923;-50
2022/08/31 02:33:33;;;;;;;;;;;21.40;63.20;;;;;;5146757;27;20417;-49
2022/08/31 02:35:58;;;;;;;;;;;21.30;60.20;;;;;;5141664;27;19926;-47
2022/08/31 02:38:24;;;;;;;;;;;20.60;57.60;;;;;;5141461;27;20459;-46
2022/08/31 02:40:50;;;;;;;;;;;20.20;56.30;;;;;;5128486;27;20358;-46
2022/08/31 02:43:16;;;;;;;;;;;20.20;54.60;;;;;;5122872;27;19930;-47
2022/08/31 02:45:42;;;;;;;;;;;19.90;54.00;;;;;;5146118;27;20466;-53
2022/08/31 02:48:08;;;;;;;;;;;19.90;56.00;;;;;;5139205;27;19927;-47
2022/08/31 02:50:37;;;;;;;;;;;20.50;62.10;;;;;;5139122;27;19970;-47
2022/08/31 02:53:03;;;;;;;;;;;21.10;63.90;;;;;;5146579;27;19927;-48
2022/08/31 02:55:28;;;;;;;;;;;21.50;61.40;;;;;;5141346;27;19948;-45
2022/08/31 02:57:54;;;;;;;;;;;20.80;58.80;;;;;;5141239;27;19927;-45
2022/08/31 03:00:20;;;;;;;;;;;20.70;56.40;;;;;;5146776;27;19931;-45
2022/08/31 03:02:47;;;;;;;;;;;20.20;55.10;;;;;;5141174;27;19933;-46
2022/08/31 03:05:12;;;;;;;;;;;20.10;54.10;;;;;;5141839;27;19923;-54
2022/08/31 03:07:38;;;;;;;;;;;19.80;54.10;;;;;;5122940;27;19923;-50
2022/08/31 03:10:04;;;;;;;;;;;20.20;59.70;;;;;;5143469;27;19979;-46
2022/08/31 03:12:30;;;;;;;;;;;20.90;63.30;;;;;;5150256;27;20417;-47
2022/08/31 03:14:56;;;;;;;;;;;21.60;62.90;;;;;;5144521;27;19967;-46
2022/08/31 03:17:22;;;;;;;;;;;21.30;59.70;;;;;;5144474;27;20286;-47
2022/08/31 03:19:47;;;;;;;;;;;20.70;57.30;;;;;;5150151;27;19923;-46
2022/08/31 03:22:14;;;;;;;;;;;20.30;55.70;;;;;;5144581;27;19927;-47
2022/08/31 03:24:40;;;;;;;;;;;20.00;54.70;;;;;;5141545;27;20353;-45
2022/08/31 03:27:05;;;;;;;;;;;20.00;53.80;;;;;;5147795;27;19923;-46
2022/08/31 03:29:31;;;;;;;;;;;19.90;53.50;;;;;;5144393;27;20328;-46
2022/08/31 03:31:57;;;;;;;;;;;20.20;59.80;;;;;;5150061;27;20465;-48
2022/08/31 03:34:23;;;;;;;;;;;21.00;63.00;;;;;;5144713;27;19957;-46
2022/08/31 03:36:48;;;;;;;;;;;21.50;63.20;;;;;;5144811;27;20013;-46
2022/08/31 03:39:14;;;;;;;;;;;21.20;59.60;;;;;;5150018;27;19927;-46
2022/08/31 03:41:40;;;;;;;;;;;20.60;57.20;;;;;;5144535;27;19923;-47
2022/08/31 03:44:08;;;;;;;;;;;20.30;55.50;;;;;;5139554;27;20225;-50
2022/08/31 03:46:34;;;;;;;;;;;20.00;54.80;;;;;;5149316;27;20042;-46
2022/08/31 03:49:00;;;;;;;;;;;19.80;54.00;;;;;;5144428;27;19927;-47
2022/08/31 03:51:26;;;;;;;;;;;19.80;53.60;;;;;;5149794;27;19923;-46
2022/08/31 03:53:52;;;;;;;;;;;19.90;54.50;;;;;;5125742;27;19923;-48
2022/08/31 03:56:18;;;;;;;;;;;20.50;61.20;;;;;;5144270;27;19923;-46
2022/08/31 03:58:43;;;;;;;;;;;21.10;63.50;;;;;;5149461;27;20334;-45
2022/08/31 04:01:10;;;;;;;;;;;21.70;62.40;;;;;;5141324;27;19943;-45
2022/08/31 04:03:36;;;;;;;;;;;21.00;59.30;;;;;;5141439;27;20461;-46
2022/08/31 04:06:05;;;;;;;;;;;20.50;56.90;;;;;;5149230;27;19923;-45
2022/08/31 04:08:31;;;;;;;;;;;20.30;55.20;;;;;;5143870;27;19929;-49
2022/08/31 04:10:57;;;;;;;;;;;20.10;54.50;;;;;;5146006;27;19931;-56
2022/08/31 04:13:23;;;;;;;;;;;20.00;53.80;;;;;;5147384;27;20107;-46
2022/08/31 04:15:49;;;;;;;;;;;19.80;54.70;;;;;;5143680;27;20017;-47
2022/08/31 04:18:19;;;;;;;;;;;20.40;61.10;;;;;;5148920;27;19950;-48
2022/08/31 04:20:45;;;;;;;;;;;21.00;63.80;;;;;;5138276;27;20173;-47
2022/08/31 04:23:10;;;;;;;;;;;21.70;62.20;;;;;;5142752;27;20401;-47
2022/08/31 04:25:37;;;;;;;;;;;20.90;59.10;;;;;;5149111;27;19987;-48
2022/08/31 04:28:03;;;;;;;;;;;20.50;57.00;;;;;;5143657;27;20014;-46
2022/08/31 04:30:29;;;;;;;;;;;20.30;55.40;;;;;;5143672;27;19966;-47
2022/08/31 04:32:55;;;;;;;;;;;20.20;54.30;;;;;;5148993;27;19927;-47
2022/08/31 04:35:21;;;;;;;;;;;19.90;53.50;;;;;;5143533;27;20135;-46
2022/08/31 04:37:47;;;;;;;;;;;19.80;54.60;;;;;;5146066;27;20386;-47
2022/08/31 04:40:19;;;;;;;;;;;20.40;61.40;;;;;;5140894;27;19924;-47
2022/08/31 04:42:45;;;;;;;;;;;21.00;63.70;;;;;;5143161;27;19962;-47
2022/08/31 04:45:14;;;;;;;;;;;21.70;62.20;;;;;;5148806;27;19967;-46
2022/08/31 04:47:41;;;;;;;;;;;20.90;59.30;;;;;;5143272;27;19923;-47
2022/08/31 04:50:09;;;;;;;;;;;20.50;57.00;;;;;;5143361;27;20025;-45
2022/08/31 04:52:35;;;;;;;;;;;20.30;55.50;;;;;;5148553;27;19923;-47
2022/08/31 04:55:02;;;;;;;;;;;19.90;54.80;;;;;;5143154;27;19953;-48
2022/08/31 04:57:27;;;;;;;;;;;20.00;53.70;;;;;;5139207;27;20293;-56
2022/08/31 04:59:53;;;;;;;;;;;20.10;59.30;;;;;;5128835;27;19954;-47
2022/08/31 05:02:19;;;;;;;;;;;20.80;63.70;;;;;;5142818;27;19931;-47
2022/08/31 05:04:44;;;;;;;;;;;21.30;64.30;;;;;;5148244;27;19923;-45
2022/08/31 05:07:10;;;;;;;;;;;21.20;60.70;;;;;;5142932;27;19934;-46
2022/08/31 05:09:36;;;;;;;;;;;20.50;58.70;;;;;;5143104;27;19927;-47
2022/08/31 05:12:02;;;;;;;;;;;20.20;56.40;;;;;;5148521;27;20267;-48
2022/08/31 05:14:28;;;;;;;;;;;20.00;55.20;;;;;;5140708;27;20018;-53
2022/08/31 05:16:54;;;;;;;;;;;19.90;54.40;;;;;;5140200;27;19930;-46
2022/08/31 05:19:19;;;;;;;;;;;19.80;53.80;;;;;;5147897;27;20396;-47
2022/08/31 05:21:45;;;;;;;;;;;20.10;60.30;;;;;;5142674;27;19948;-48
2022/08/31 05:24:12;;;;;;;;;;;20.80;63.90;;;;;;5148099;27;19923;-45
2022/08/31 05:26:46;;;;;;;;;;;21.40;64.20;;;;;;5124252;27;20025;-47
2022/08/31 05:29:13;;;;;;;;;;;21.20;61.00;;;;;;5142905;27;20347;-47
2022/08/31 05:31:39;;;;;;;;;;;20.60;58.00;;;;;;5148077;27;19935;-49
2022/08/31 05:34:04;;;;;;;;;;;20.20;56.30;;;;;;5138257;27;19931;-54
2022/08/31 05:36:30;;;;;;;;;;;20.00;54.90;;;;;;5141677;27;19927;-51
2022/08/31 05:38:57;;;;;;;;;;;19.90;54.10;;;;;;5148152;27;19946;-47
2022/08/31 05:41:23;;;;;;;;;;;19.80;56.40;;;;;;5142394;27;19930;-46
2022/08/31 05:43:49;;;;;;;;;;;20.40;62.50;;;;;;5145643;27;19923;-57
2022/08/31 05:46:14;;;;;;;;;;;21.10;64.30;;;;;;5145388;27;19923;-48
2022/08/31 05:48:40;;;;;;;;;;;21.70;63.70;;;;;;5124012;27;19962;-48
2022/08/31 05:51:07;;;;;;;;;;;21.10;59.90;;;;;;5146071;27;19974;-50
2022/08/31 05:53:33;;;;;;;;;;;20.40;57.70;;;;;;5138924;27;19923;-45
2022/08/31 05:56:00;;;;;;;;;;;20.20;55.90;;;;;;5141873;27;20041;-46
2022/08/31 05:58:26;;;;;;;;;;;20.20;54.40;;;;;;5147439;27;19923;-45
2022/08/31 06:00:52;;;;;;;;;;;19.90;54.00;;;;;;5141993;27;19933;-45
2022/08/31 06:03:18;;;;;;;;;;;19.80;53.50;;;;;;5142008;27;19931;-51
2022/08/31 06:05:44;;;;;;;;;;;20.10;59.20;;;;;;5147453;27;20010;-47
2022/08/31 06:08:10;;;;;;;;;;;20.80;63.60;;;;;;5141959;27;19934;-49
2022/08/31 06:10:36;;;;;;;;;;;21.40;64.00;;;;;;5143472;27;19930;-54
2022/08/31 06:13:04;;;;;;;;;;;21.20;60.80;;;;;;5140850;27;20021;-47
2022/08/31 06:15:29;;;;;;;;;;;20.60;58.60;;;;;;5141805;27;20010;-50
2022/08/31 06:17:56;;;;;;;;;;;20.30;56.60;;;;;;5147232;27;19967;-45
2022/08/31 06:20:22;;;;;;;;;;;20.20;55.20;;;;;;5141899;27;20298;-46
2022/08/31 06:22:48;;;;;;;;;;;19.90;54.40;;;;;;5142028;27;19927;-46
2022/08/31 06:25:17;;;;;;;;;;;19.80;54.00;;;;;;5147252;27;19950;-48
2022/08/31 06:27:43;;;;;;;;;;;20.00;57.60;;;;;;5140490;27;20025;-52
2022/08/31 06:30:09;;;;;;;;;;;20.60;63.10;;;;;;5143696;27;19923;-48
2022/08/31 06:32:35;;;;;;;;;;;21.30;64.00;;;;;;5141621;27;20271;-47
2022/08/31 06:35:00;;;;;;;;;;;21.70;62.00;;;;;;5137505;27;19934;-48
2022/08/31 06:37:26;;;;;;;;;;;20.80;58.90;;;;;;5128630;27;19935;-45
2022/08/31 06:39:52;;;;;;;;;;;20.30;57.10;;;;;;5141669;27;19980;-47
2022/08/31 06:42:18;;;;;;;;;;;20.30;55.30;;;;;;5141848;27;20174;-47
2022/08/31 06:44:44;;;;;;;;;;;19.80;55.10;;;;;;5146407;27;20366;-47
2022/08/31 06:47:10;;;;;;;;;;;20.00;53.70;;;;;;5138050;27;19923;-46
2022/08/31 06:49:36;;;;;;;;;;;19.90;57.70;;;;;;5143208;27;19923;-56
2022/08/31 06:52:02;;;;;;;;;;;20.60;63.20;;;;;;5143507;27;19934;-47
2022/08/31 06:54:27;;;;;;;;;;;21.20;64.30;;;;;;5141393;27;19975;-48
2022/08/31 06:56:55;;;;;;;;;;;21.50;62.00;;;;;;5146881;27;19927;-46
2022/08/31 06:59:20;;;;;;;;;;;20.70;58.90;;;;;;5141337;27;19923;-46
2022/08/31 07:01:46;;;;;;;;;;;20.30;56.90;;;;;;5141337;27;19976;-47
2022/08/31 07:04:13;;;;;;;;;;;20.10;55.50;;;;;;5146167;27;19975;-54
2022/08/31 07:06:39;;;;;;;;;;;20.00;54.70;;;;;;5136709;27;19933;-48
2022/08/31 07:09:06;;;;;;;;;;;19.90;53.80;;;;;;5140911;27;20492;-51
2022/08/31 07:11:36;;;;;;;;;;;20.00;59.80;;;;;;5128121;27;20026;-47
2022/08/31 07:14:02;;;;;;;;;;;20.80;63.60;;;;;;5122704;27;20018;-48
2022/08/31 07:16:28;;;;;;;;;;;21.40;63.70;;;;;;5146628;27;20354;-47
2022/08/31 07:18:54;;;;;;;;;;;21.30;60.50;;;;;;5141135;27;19923;-46
2022/08/31 07:21:22;;;;;;;;;;;20.70;58.30;;;;;;5141134;27;20464;-46
2022/08/31 07:23:50;;;;;;;;;;;20.30;56.00;;;;;;5124142;27;20322;-47
2022/08/31 07:26:18;;;;;;;;;;;20.20;55.00;;;;;;5139025;27;19942;-45
2022/08/31 07:28:43;;;;;;;;;;;19.90;54.60;;;;;;5140792;27;20176;-46
2022/08/31 07:31:10;;;;;;;;;;;19.80;54.10;;;;;;5146338;27;20294;-46
2022/08/31 07:33:39;;;;;;;;;;;20.20;60.60;;;;;;5140901;27;19949;-49
2022/08/31 07:36:06;;;;;;;;;;;20.80;63.80;;;;;;5125372;27;20010;-51
2022/08/31 07:44:21;;;;;;;;;;;20.40;57.30;;;;;;5033886;28;19936;-47
2022/08/31 07:46:46;;;;;;;;;;;20.20;55.20;;;;;;5041812;28;19933;-48
2022/08/31 07:49:13;;;;;;;;;;;20.00;54.00;;;;;;5082972;27;20019;-48
2022/08/31 07:51:42;;;;;;;;;;;19.90;55.80;;;;;;5141419;27;20295;-52
2022/08/31 07:54:09;;;;;;;;;;;20.50;62.30;;;;;;5146059;27;19927;-45
2022/08/31 07:56:35;;;;;;;;;;;21.10;64.00;;;;;;5142338;27;19926;-46
2022/08/31 07:59:02;;;;;;;;;;;21.60;61.50;;;;;;5149479;27;19934;-47
2022/08/31 08:01:30;;;;;;;;;;;20.80;58.80;;;;;;5139290;27;20293;-46
2022/08/31 08:04:00;;;;;;;;;;;20.40;56.20;;;;;;5143250;27;19923;-46
2022/08/31 08:06:27;;;;;;;;;;;20.20;55.10;;;;;;5145919;27;19951;-47
2022/08/31 08:08:53;;;;;;;;;;;19.90;54.80;;;;;;5143685;27;19923;-47
2022/08/31 08:11:20;;;;;;;;;;;19.90;53.60;;;;;;5125412;27;20603;-47
2022/08/31 08:13:47;;;;;;;;;;;20.20;58.40;;;;;;5149258;27;20025;-50
2022/08/31 08:16:12;;;;;;;;;;;20.80;62.90;;;;;;5143841;27;19930;-46
2022/08/31 08:18:38;;;;;;;;;;;21.40;63.20;;;;;;5143615;27;19927;-54
2022/08/31 08:21:04;;;;;;;;;;;21.30;60.60;;;;;;5143761;27;20442;-48
2022/08/31 08:23:30;;;;;;;;;;;20.90;57.80;;;;;;5143532;27;19923;-45
2022/08/31 08:26:00;;;;;;;;;;;20.30;56.20;;;;;;5149070;27;19923;-46
2022/08/31 08:28:26;;;;;;;;;;;20.20;55.50;;;;;;5143535;27;19923;-46
2022/08/31 08:30:53;;;;;;;;;;;19.90;54.40;;;;;;5143638;27;19970;-46
2022/08/31 08:33:20;;;;;;;;;;;19.90;53.80;;;;;;5148970;27;20014;-46
2022/08/31 08:35:54;;;;;;;;;;;20.00;58.50;;;;;;5143569;27;19975;-51
2022/08/31 08:38:20;;;;;;;;;;;20.70;62.70;;;;;;5138372;27;20417;-46
2022/08/31 08:40:45;;;;;;;;;;;21.30;63.40;;;;;;5148425;27;19933;-46
2022/08/31 08:43:13;;;;;;;;;;;21.30;60.80;;;;;;5143573;27;19923;-47
2022/08/31 08:45:39;;;;;;;;;;;20.60;58.40;;;;;;5130392;27;20374;-54
2022/08/31 08:48:08;;;;;;;;;;;20.30;55.70;;;;;;5124148;27;19931;-47
2022/08/31 08:50:35;;;;;;;;;;;20.20;55.20;;;;;;5143262;27;19933;-47
2022/08/31 08:53:04;;;;;;;;;;;20.00;54.70;;;;;;5130563;27;19977;-48
2022/08/31 08:55:33;;;;;;;;;;;19.90;54.80;;;;;;5139890;27;20378;-46
2022/08/31 08:57:59;;;;;;;;;;;20.40;62.10;;;;;;5122528;27;20301;-48
2022/08/31 09:00:25;;;;;;;;;;;21.10;64.00;;;;;;5148385;27;19923;-46
2022/08/31 09:02:59;;;;;;;;;;;21.60;61.70;;;;;;5143107;27;20362;-47
2022/08/31 09:05:33;;;;;;;;;;;20.90;59.00;;;;;;5125165;27;20644;-46
2022/08/31 09:08:15;;;;;;;;;;;20.50;56.80;;;;;;5148072;27;19923;-46
2022/08/31 09:10:47;;;;;;;;;;;20.30;55.10;;;;;;5143039;27;20370;-47
2022/08/31 09:13:35;;;;;;;;;;;20.00;54.20;;;;;;5141243;27;20253;-51
2022/08/31 09:16:03;;;;;;;;;;;20.00;53.60;;;;;;5145728;27;19923;-47
2022/08/31 09:18:45;;;;;;;;;;;19.90;54.70;;;;;;5142323;27;19923;-46
2022/08/31 09:21:20;;;;;;;;;;;20.40;61.70;;;;;;5142817;27;20399;-47
2022/08/31 09:23:53;;;;;;;;;;;21.10;64.10;;;;;;5148158;27;19923;-47
2022/08/31 09:26:19;;;;;;;;;;;21.80;62.80;;;;;;5142806;27;19927;-46
2022/08/31 09:28:47;;;;;;;;;;;21.00;59.30;;;;;;5142661;27;20173;-46
2022/08/31 09:31:24;;;;;;;;;;;20.60;57.20;;;;;;5147737;27;19931;-48
2022/08/31 09:33:50;;;;;;;;;;;19.90;55.90;;;;;;5138724;27;20828;-46
2022/08/31 09:36:17;;;;;;;;;;;20.00;54.70;;;;;;5142202;27;20013;-47
2022/08/31 09:38:45;;;;;;;;;;;19.80;54.10;;;;;;5128719;27;20010;-48
2022/08/31 09:41:28;;;;;;;;;;;19.80;53.20;;;;;;5142273;27;19934;-47
2022/08/31 09:43:55;;;;;;;;;;;20.20;60.70;;;;;;5123124;27;19923;-55
2022/08/31 09:46:27;;;;;;;;;;;20.90;63.40;;;;;;5129546;27;19935;-47
2022/08/31 09:48:55;;;;;;;;;;;21.70;62.70;;;;;;5142655;27;20040;-46
2022/08/31 09:51:23;;;;;;;;;;;20.90;59.40;;;;;;5124873;27;20003;-46
2022/08/31 09:56:49;;;;;;;;;;;20.30;55.30;;;;;;5142243;27;20430;-45
2022/08/31 09:59:16;;;;;;;;;;;20.00;54.40;;;;;;5146221;27;20573;-55
2022/08/31 10:01:43;;;;;;;;;;;20.00;54.00;;;;;;5126006;27;20353;-48
2022/08/31 10:04:14;;;;;;;;;;;20.30;61.40;;;;;;5141900;27;19923;-48
2022/08/31 10:06:45;;;;;;;;;;;21.00;63.30;;;;;;5147442;27;20325;-45
2022/08/31 10:09:45;;;;;;;;;;;21.70;61.30;;;;;;5138419;27;19923;-46
2022/08/31 10:12:18;;;;;;;;;;;20.80;58.60;;;;;;5085707;27;19924;-46
2022/08/31 10:14:49;;;;;;;;;;;20.20;56.00;;;;;;5126868;27;20448;-55
2022/08/31 10:17:17;;;;;;;;;;;20.00;55.20;;;;;;5110953;27;19924;-46
2022/08/31 10:19:50;;;;;;;;;;;19.80;54.20;;;;;;5140884;27;19927;-51
2022/08/31 10:22:24;;;;;;;;;;;20.00;59.10;;;;;;5147294;27;19923;-47
2022/08/31 10:24:55;;;;;;;;;;;20.80;62.60;;;;;;5142120;27;20267;-46
2022/08/31 10:27:30;;;;;;;;;;;21.60;62.00;;;;;;5119868;27;19971;-49
2022/08/31 10:30:05;;;;;;;;;;;21.10;59.30;;;;;;5126981;27;19923;-45
2022/08/31 10:32:49;;;;;;;;;;;20.70;56.80;;;;;;5141366;27;19930;-46
2022/08/31 10:35:18;;;;;;;;;;;20.30;54.90;;;;;;5141406;27;19929;-46
2022/08/31 10:37:57;;;;;;;;;;;20.20;54.00;;;;;;5127876;27;21210;-45
2022/08/31 10:40:27;;;;;;;;;;;19.80;53.60;;;;;;5143223;27;20268;-50
2022/08/31 10:43:08;;;;;;;;;;;20.10;58.80;;;;;;5141525;27;19970;-48
2022/08/31 10:45:36;;;;;;;;;;;20.80;62.10;;;;;;5143557;27;20438;-47
2022/08/31 10:48:03;;;;;;;;;;;21.60;61.60;;;;;;5139203;27;19927;-50
2022/08/31 10:50:43;;;;;;;;;;;21.20;58.80;;;;;;5141528;27;20409;-46
2022/08/31 10:53:32;;;;;;;;;;;20.50;57.20;;;;;;5147148;27;20009;-45
2022/08/31 10:56:13;;;;;;;;;;;20.20;55.50;;;;;;5145657;27;19923;-45
2022/08/31 10:58:42;;;;;;;;;;;19.80;54.20;;;;;;5141198;27;19945;-48
2022/08/31 11:01:23;;;;;;;;;;;19.90;53.30;;;;;;5146283;27;19956;-53
2022/08/31 11:04:00;;;;;;;;;;;20.00;58.60;;;;;;5143555;27;19923;-50
2022/08/31 11:06:29;;;;;;;;;;;20.80;62.10;;;;;;5120371;27;20293;-47
2022/08/31 11:09:24;;;;;;;;;;;21.60;61.50;;;;;;5145202;27;19923;-56
2022/08/31 11:12:07;;;;;;;;;;;21.00;58.60;;;;;;5124433;27;19933;-48
2022/08/31 11:14:43;;;;;;;;;;;20.50;56.20;;;;;;5141268;27;20025;-47
2022/08/31 11:17:09;;;;;;;;;;;20.30;54.60;;;;;;5141277;27;20173;-46
2022/08/31 11:19:54;;;;;;;;;;;20.10;53.80;;;;;;5146467;27;19926;-46
2022/08/31 11:22:33;;;;;;;;;;;20.00;53.20;;;;;;5137849;27;19927;-46
2022/08/31 11:25:02;;;;;;;;;;;20.10;57.90;;;;;;5138611;27;19927;-47
2022/08/31 11:27:32;;;;;;;;;;;20.80;62.10;;;;;;5127996;27;20023;-46
2022/08/31 11:29:59;;;;;;;;;;;21.50;61.60;;;;;;5142019;27;20446;-46
2022/08/31 11:32:33;;;;;;;;;;;21.00;59.00;;;;;;5126216;27;20610;-47
2022/08/31 11:34:59;;;;;;;;;;;20.50;56.80;;;;;;5131340;27;19945;-47
2022/08/31 11:37:45;;;;;;;;;;;20.20;55.30;;;;;;5144247;27;20378;-45
2022/08/31 11:40:11;;;;;;;;;;;20.00;54.30;;;;;;5142779;27;20237;-50
2022/08/31 11:42:37;;;;;;;;;;;19.90;53.30;;;;;;5126388;27;20058;-46
2022/08/31 11:45:21;;;;;;;;;;;20.00;57.70;;;;;;5144203;27;20033;-45
2022/08/31 11:47:47;;;;;;;;;;;20.70;62.10;;;;;;5144389;27;19927;-52
2022/08/31 11:50:22;;;;;;;;;;;21.50;61.30;;;;;;5149571;27;20366;-45
2022/08/31 11:52:49;;;;;;;;;;;21.20;59.10;;;;;;5144283;27;19979;-45
2022/08/31 11:55:22;;;;;;;;;;;20.50;56.90;;;;;;5131234;27;20437;-46
2022/08/31 11:58:06;;;;;;;;;;;20.20;55.40;;;;;;5145914;27;19923;-48
2022/08/31 12:00:42;;;;;;;;;;;20.20;53.90;;;;;;5139248;27;19931;-49
2022/08/31 12:03:08;;;;;;;;;;;19.90;53.00;;;;;;5146683;27;20039;-54
2022/08/31 12:05:41;;;;;;;;;;;20.00;56.10;;;;;;5146510;27;19927;-46
2022/08/31 12:08:10;;;;;;;;;;;20.60;61.20;;;;;;5143962;27;20386;-49
2022/08/31 12:10:41;;;;;;;;;;;21.30;61.70;;;;;;5131576;27;19924;-50
2022/08/31 12:13:24;;;;;;;;;;;21.40;59.10;;;;;;5124128;27;19923;-47
2022/08/31 12:15:59;;;;;;;;;;;20.70;56.80;;;;;;5125623;27;20309;-48
2022/08/31 12:18:44;;;;;;;;;;;20.20;55.70;;;;;;5144184;27;19930;-53
2022/08/31 12:24:22;;;;;;;;;;;19.80;53.80;;;;;;5143795;27;20017;-47
2022/08/31 12:26:50;;;;;;;;;;;20.50;60.50;;;;;;5143740;27;19931;-47
2022/08/31 12:29:16;;;;;;;;;;;21.10;62.10;;;;;;5130626;27;20298;-45
2022/08/31 12:31:42;;;;;;;;;;;21.70;59.80;;;;;;5143651;27;20498;-46
2022/08/31 12:34:12;;;;;;;;;;;20.80;57.50;;;;;;5127661;27;20300;-54
2022/08/31 12:36:38;;;;;;;;;;;20.40;56.30;;;;;;5144275;27;19926;-49
2022/08/31 12:39:08;;;;;;;;;;;20.20;54.60;;;;;;5123694;27;20335;-47
2022/08/31 12:41:36;;;;;;;;;;;20.00;53.90;;;;;;5148035;27;20311;-46
2022/08/31 12:44:02;;;;;;;;;;;20.00;53.40;;;;;;5124227;27;19927;-46
2022/08/31 12:46:30;;;;;;;;;;;19.90;54.60;;;;;;5143307;27;20604;-45
2022/08/31 12:49:06;;;;;;;;;;;20.50;60.70;;;;;;5129231;27;19930;-49
2022/08/31 12:51:43;;;;;;;;;;;21.20;61.80;;;;;;5125119;27;19931;-47
2022/08/31 12:54:15;;;;;;;;;;;21.80;60.10;;;;;;5121937;27;20030;-48
2022/08/31 12:56:58;;;;;;;;;;;20.80;57.80;;;;;;5146318;27;19923;-44
2022/08/31 12:59:34;;;;;;;;;;;20.40;56.00;;;;;;5121037;27;20278;-45
2022/08/31 13:02:00;;;;;;;;;;;20.20;54.70;;;;;;5124738;27;20043;-47
2022/08/31 13:04:25;;;;;;;;;;;20.20;53.50;;;;;;5129935;27;19923;-46
2022/08/31 13:06:51;;;;;;;;;;;19.80;53.30;;;;;;5142914;27;19934;-47
2022/08/31 13:09:25;;;;;;;;;;;19.90;57.00;;;;;;5124525;27;19923;-47
2022/08/31 13:11:51;;;;;;;;;;;20.60;61.50;;;;;;5147493;27;20037;-53
2022/08/31 13:14:23;;;;;;;;;;;21.30;61.50;;;;;;5138567;27;19934;-49
2022/08/31 13:17:05;;;;;;;;;;;21.50;58.70;;;;;;5142559;27;19935;-48
2022/08/31 13:19:31;;;;;;;;;;;20.60;56.90;;;;;;5148418;27;20259;-46
2022/08/31 13:21:58;;;;;;;;;;;20.40;55.00;;;;;;5142721;27;20347;-45
2022/08/31 13:24:27;;;;;;;;;;;20.10;54.50;;;;;;5146493;27;20120;-55
2022/08/31 13:27:02;;;;;;;;;;;19.90;54.00;;;;;;5145933;27;19951;-48
2022/08/31 13:29:28;;;;;;;;;;;19.90;53.20;;;;;;5142813;27;19929;-46
2022/08/31 13:31:54;;;;;;;;;;;20.10;56.80;;;;;;5143370;27;19923;-46
2022/08/31 13:34:22;;;;;;;;;;;20.80;61.20;;;;;;5141643;27;19931;-47
2022/08/31 13:36:50;;;;;;;;;;;21.40;61.10;;;;;;5142380;27;20293;-45
2022/08/31 13:39:21;;;;;;;;;;;21.40;58.80;;;;;;5148078;27;19927;-46
2022/08/31 13:41:55;;;;;;;;;;;20.80;56.90;;;;;;5142699;27;19947;-45
2022/08/31 13:44:21;;;;;;;;;;;20.30;55.60;;;;;;5142448;27;19923;-46
2022/08/31 13:47:01;;;;;;;;;;;20.30;54.50;;;;;;5147841;27;19987;-45
2022/08/31 13:49:34;;;;;;;;;;;20.00;53.90;;;;;;5138996;27;19953;-47
2022/08/31 13:52:03;;;;;;;;;;;19.90;53.50;;;;;;5140007;27;19923;-47
2022/08/31 13:54:30;;;;;;;;;;;20.20;58.50;;;;;;5146281;27;19923;-47
2022/08/31 13:57:07;;;;;;;;;;;20.80;61.80;;;;;;5142218;27;20103;-47
2022/08/31 13:59:34;;;;;;;;;;;21.60;61.10;;;;;;5142226;27;20338;-47
2022/08/31 14:02:03;;;;;;;;;;;21.10;58.00;;;;;;5147754;27;19923;-47
2022/08/31 14:04:47;;;;;;;;;;;20.60;56.10;;;;;;5142168;27;19923;-45
2022/08/31 14:07:18;;;;;;;;;;;20.30;54.80;;;;;;5119568;27;19979;-51
2022/08/31 14:09:45;;;;;;;;;;;20.10;54.00;;;;;;5126191;27;19930;-47
2022/08/31 14:12:20;;;;;;;;;;;19.90;53.30;;;;;;5141733;27;20286;-46
2022/08/31 14:14:47;;;;;;;;;;;20.10;58.00;;;;;;5144497;27;20382;-54
2022/08/31 14:17:16;;;;;;;;;;;20.80;61.70;;;;;;5145822;27;19933;-46
2022/08/31 14:19:42;;;;;;;;;;;21.60;61.20;;;;;;5141993;27;20278;-46
2022/08/31 14:22:15;;;;;;;;;;;21.20;58.30;;;;;;5147304;27;19965;-46
2022/08/31 14:24:42;;;;;;;;;;;20.50;56.60;;;;;;5141725;27;19931;-45
2022/08/31 14:27:09;;;;;;;;;;;20.30;55.20;;;;;;5136743;27;19927;-50
2022/08/31 14:29:36;;;;;;;;;;;20.20;54.20;;;;;;5146335;27;19923;-45
2022/08/31 14:32:02;;;;;;;;;;;20.10;53.40;;;;;;5141569;27;20351;-47
2022/08/31 14:34:32;;;;;;;;;;;19.90;53.10;;;;;;5141583;27;19937;-48
2022/08/31 14:37:00;;;;;;;;;;;20.00;55.70;;;;;;5128715;27;19927;-46
2022/08/31 14:39:30;;;;;;;;;;;20.60;61.10;;;;;;5141480;27;19931;-47